Jump to content


SOUTHWEST AIRLINES FLIGHT WN1128 FLOWN ON 07-27-2017 BY CAPTAIN TYLER HANUS

Pilot StatsCaptain Tyler Hanus (LDP525) • 244.8 total hours • 53 total flights [View Logbook]
FLIGHT DETAILS
StatusReceived and approved on 2017-07-27 at 19:07:29
Origin AirportOrlando Intl (KMCO) • Orlando, Florida, United States (96 feet MSL)
Filed Flight PlanFLIGHT PLANNER OFFLINE
Destination AirportLuis Munoz Marin Intl (TJSJ) • San Juan, Puerto Rico (9 feet MSL)
Alternate AirportRoosevelt Roads NS (Ofstie Field) (NRR) • Roosevelt Roads, Puerto Rico (38 feet MSL)
AirlineSouthwest Airlines
AircraftBoeing 737-700 | Winglets (73W / B737-700)
FS Aircraft UsedBoeing 737-7H4NG Southwest Airlines N708SW Goldstar Textures
Cruising AltitudeFL370
Distance Flown1,033 nautical miles
Passengers Onboard45 passengers (33.09% full)
DEPARTURE DETAILS
Time Out16:16:03
Taxi Data113,535 lbs total with 19,057 lbs of fuel onboard
Takeoff Data16:24:01 (8 minutes after leaving gate/ramp) • 113,222 lbs total • 5° pitch at 132 knots
Departure METARKMCO 271853Z 18008KT 10SM FEW037 SCT240 BKN300 33/24 A2998 RMK AO2 SLP150 T03330239
ARRIVAL DETAILS
Landing Data19:05:23 • 99,409 lbs total • 4° pitch doing 107 knots at a rate of -146.87 feet/minute with 4,702 lbs of fuel onboard
Time In19:11:06 (6 minutes after landing)
Ramp Weight99,180 lbs total
Total Fuel Used14,355 lbs
Total Block Time02:42:23 (2.7 hours) while 14 minutes were spent on the ground
Arrival METARTJSJ 272256Z 08010KT 10SM FEW042 FEW100 29/25 A2994 RMK AO2 SLP137 T02890250
MISCELLANEOUS DETAILS
LiveDISPATCH Version4.8.3.1
FS Version
FSUIPC Version4.96
OS VersionWindows 7 32-bit
Screen Resolution1360 x 768
Pilot's CommentsNo Comments Reported
FLIGHT MAP